Time;durP1;ratioP1;P1;durP2;ratioP2;P2;SDS_P1;SDS_P2;PMS_P1;PMS_P2;Temp;Humidity;BMP_temperature;BMP_pressure;BME280_temperature;BME280_humidity;BME280_pressure;Samples;Min_cycle;Max_cycle;Signal;HPM_P1;HPM_P2
2021/08/10 02:45:11;;;;;;;8.68;4.38;;;20.50;98.60;;;;;;5771368;24;21552;31
2021/08/10 02:47:37;;;;;;;7.65;4.53;;;20.50;98.70;;;;;;4740238;30;20346;-78
2021/08/10 02:50:05;;;;;;;7.60;3.95;;;20.50;98.50;;;;;;4729964;30;20032;-78
2021/08/10 02:52:31;;;;;;;8.02;4.13;;;20.40;98.70;;;;;;4760750;30;20050;-80
2021/08/10 02:54:57;;;;;;;5.60;3.70;;;20.40;98.90;;;;;;4748571;30;20344;-80
2021/08/10 02:57:26;;;;;;;8.13;4.33;;;20.40;98.80;;;;;;4763726;30;20024;-80
2021/08/10 03:00:11;;;;;;;8.05;4.10;;;20.40;98.90;;;;;;4748648;30;20281;-78
2021/08/10 03:02:48;;;;;;;6.30;3.97;;;20.40;98.90;;;;;;4748606;30;20032;-80
2021/08/10 03:05:21;;;;;;;9.40;4.63;;;20.40;99.00;;;;;;4736945;30;20278;-80
2021/08/10 03:07:54;;;;;;;5.50;4.22;;;20.30;99.00;;;;;;4757442;30;20231;-80
2021/08/10 03:10:23;;;;;;;7.15;4.55;;;20.30;99.20;;;;;;4763237;30;20028;-80
2021/08/10 03:12:51;;;;;;;6.45;4.00;;;20.30;99.40;;;;;;4731132;30;20033;-78
2021/08/10 03:15:23;;;;;;;8.13;4.57;;;20.20;99.50;;;;;;4751454;30;20020;-78
2021/08/10 03:17:53;;;;;;;6.85;4.65;;;20.20;99.60;;;;;;4739608;30;20043;-80
2021/08/10 03:20:21;;;;;;;9.77;5.63;;;20.20;99.60;;;;;;4757690;30;20259;-78
2021/08/10 03:22:48;;;;;;;6.50;4.25;;;20.10;99.40;;;;;;4751591;30;20295;-80
2021/08/10 03:25:17;;;;;;;9.25;4.60;;;20.20;99.40;;;;;;4728210;30;20078;-80
2021/08/10 03:27:44;;;;;;;8.60;4.90;;;20.10;99.50;;;;;;4728734;30;20037;-80
2021/08/10 03:30:11;;;;;;;;;;;20.10;99.60;;;;;;4736917;30;20104;-78
2021/08/10 03:32:39;;;;;;;7.57;4.50;;;20.00;99.60;;;;;;4751438;30;19918;-78
2021/08/10 03:35:06;;;;;;;11.77;6.53;;;20.00;99.70;;;;;;4728195;30;20052;-78
2021/08/10 03:37:33;;;;;;;6.85;4.53;;;20.00;99.80;;;;;;4713807;30;20032;-78
2021/08/10 03:40:01;;;;;;;7.78;4.53;;;19.90;99.90;;;;;;4713550;30;20285;-78
2021/08/10 03:42:29;;;;;;;11.75;4.70;;;20.00;99.90;;;;;;4713458;30;20029;-78
2021/08/10 03:44:55;;;;;;;8.40;4.70;;;19.90;99.90;;;;;;4713398;30;20048;-78
2021/08/10 03:47:22;;;;;;;10.40;4.60;;;19.90;99.90;;;;;;4722870;30;20073;-78
2021/08/10 03:49:49;;;;;;;8.35;4.40;;;19.80;99.90;;;;;;4735837;30;20503;-78
2021/08/10 03:52:16;;;;;;;9.85;5.05;;;19.90;99.90;;;;;;4737097;30;20028;-78
2021/08/10 03:54:42;;;;;;;8.30;5.43;;;19.80;99.90;;;;;;4730587;30;20080;-78
2021/08/10 03:57:14;;;;;;;10.43;5.38;;;19.80;99.90;;;;;;4740760;30;20039;-78
2021/08/10 03:59:41;;;;;;;7.22;4.72;;;19.80;99.90;;;;;;4750441;30;20331;-78
2021/08/10 04:02:09;;;;;;;7.28;4.85;;;19.70;99.90;;;;;;4763705;30;20020;-78
2021/08/10 04:04:35;;;;;;;7.85;5.45;;;19.70;99.90;;;;;;4742866;30;20028;-78
2021/08/10 04:07:05;;;;;;;7.90;4.97;;;19.80;99.90;;;;;;4721060;30;20101;-80
2021/08/10 04:09:34;;;;;;;10.02;5.85;;;19.80;99.90;;;;;;4727142;30;20024;-80
2021/08/10 04:12:04;;;;;;;12.75;5.35;;;19.80;99.90;;;;;;4757240;30;20043;-80
2021/08/10 04:14:33;;;;;;;7.00;4.75;;;19.80;99.90;;;;;;4721019;30;20088;-80
2021/08/10 04:17:05;;;;;;;6.60;5.22;;;19.80;99.90;;;;;;4759043;30;20059;-80
2021/08/10 04:19:35;;;;;;;9.43;4.80;;;19.80;99.90;;;;;;4721430;30;20066;-78
2021/08/10 04:22:02;;;;;;;7.22;4.90;;;19.90;99.90;;;;;;4747804;30;20204;-78
2021/08/10 04:24:31;;;;;;;8.70;5.40;;;20.00;99.90;;;;;;4747556;30;20031;-78
2021/08/10 04:26:57;;;;;;;9.13;5.32;;;20.10;99.90;;;;;;4762366;30;20087;-78
2021/08/10 04:29:23;;;;;;;7.63;5.35;;;20.20;99.90;;;;;;4727122;30;20036;-80
2021/08/10 04:31:50;;;;;;;11.10;5.18;;;20.30;99.90;;;;;;4750962;30;20069;-80
2021/08/10 04:34:16;;;;;;;8.63;4.43;;;20.40;99.90;;;;;;4734975;30;20032;-78
2021/08/10 04:36:42;;;;;;;7.65;4.93;;;20.50;99.90;;;;;;4747875;30;20091;-80
2021/08/10 04:39:07;;;;;;;7.97;4.47;;;20.60;99.90;;;;;;4756495;30;20032;-79
2021/08/10 04:41:33;;;;;;;9.20;4.95;;;20.70;99.90;;;;;;4747562;30;20204;-78
2021/08/10 04:44:00;;;;;;;9.70;4.88;;;20.70;99.90;;;;;;4723026;30;20312;-79
2021/08/10 04:46:28;;;;;;;7.93;4.35;;;20.90;99.90;;;;;;4729851;30;20120;-78
2021/08/10 04:48:55;;;;;;;;;;;20.90;99.70;;;;;;4736525;30;20041;-79
2021/08/10 04:51:21;;;;;;;7.60;5.30;;;21.00;99.40;;;;;;4735894;30;19910;-78
2021/08/10 04:53:47;;;;;;;7.70;5.25;;;21.10;99.10;;;;;;4724761;30;20025;-79
2021/08/10 04:56:13;;;;;;;10.73;4.43;;;21.20;99.00;;;;;;4732833;30;20028;-79
2021/08/10 04:58:40;;;;;;;12.67;5.07;;;21.20;98.70;;;;;;4732525;30;20036;-79
2021/08/10 05:01:06;;;;;;;8.23;5.77;;;21.20;98.90;;;;;;4733416;30;20043;-79
2021/08/10 05:03:35;;;;;;;10.80;4.95;;;21.20;99.00;;;;;;4729540;30;20032;-78
2021/08/10 05:06:03;;;;;;;8.52;4.78;;;21.20;98.80;;;;;;4730575;30;20040;-79
2021/08/10 05:08:29;;;;;;;11.00;4.97;;;21.20;98.60;;;;;;4718165;30;20071;-81
2021/08/10 05:10:58;;;;;;;11.85;5.40;;;21.30;98.40;;;;;;4720119;30;20025;-79
2021/08/10 05:13:25;;;;;;;9.55;4.57;;;21.40;98.10;;;;;;4751673;30;20039;-79
2021/08/10 05:15:51;;;;;;;9.90;3.97;;;21.40;97.70;;;;;;4718497;30;20423;-81
2021/08/10 05:18:17;;;;;;;6.15;3.65;;;21.50;97.30;;;;;;4734434;30;20087;-81
2021/08/10 05:20:44;;;;;;;7.72;4.68;;;21.60;96.90;;;;;;4734345;30;20025;-81
2021/08/10 05:23:10;;;;;;;6.22;4.15;;;21.60;96.40;;;;;;4734444;30;20105;-82
2021/08/10 05:25:37;;;;;;;6.53;3.85;;;21.60;96.10;;;;;;4739649;30;20084;-79
2021/08/10 05:28:06;;;;;;;5.35;3.83;;;21.70;95.90;;;;;;4735086;30;20039;-79
2021/08/10 05:30:33;;;;;;;6.23;3.40;;;21.70;95.20;;;;;;4759994;30;20255;-81
2021/08/10 05:32:59;;;;;;;6.37;3.60;;;21.70;95.00;;;;;;4765199;30;20274;-80
2021/08/10 05:35:33;;;;;;;7.13;4.50;;;21.80;94.90;;;;;;4742679;30;20036;-81
2021/08/10 05:37:59;;;;;;;10.90;3.88;;;22.00;94.90;;;;;;4733214;30;20324;-79
2021/08/10 05:40:25;;;;;;;6.38;3.75;;;22.10;94.20;;;;;;4719759;30;20323;-80
2021/08/10 05:42:53;;;;;;;6.93;3.90;;;22.20;93.80;;;;;;4745017;30;20067;-79
2021/08/10 05:45:18;;;;;;;9.20;4.40;;;22.30;93.80;;;;;;4730718;30;20032;-82
2021/08/10 05:47:44;;;;;;;6.10;3.95;;;22.40;93.80;;;;;;4750226;30;20071;-80
2021/08/10 05:50:11;;;;;;;7.83;3.27;;;22.50;92.90;;;;;;4750348;30;20028;-80
2021/08/10 05:52:37;;;;;;;7.38;3.50;;;22.50;92.60;;;;;;4746055;30;20316;-79
2021/08/10 05:55:04;;;;;;;10.00;3.27;;;22.50;92.40;;;;;;4728064;30;20039;-79
2021/08/10 05:57:30;;;;;;;8.77;3.35;;;22.50;92.10;;;;;;4730584;30;20295;-79
2021/08/10 05:59:56;;;;;;;8.52;2.78;;;22.70;92.00;;;;;;4734787;30;20067;-79
2021/08/10 06:02:23;;;;;;;7.63;3.42;;;22.70;91.30;;;;;;4746972;30;20036;-79
2021/08/10 06:04:49;;;;;;;9.55;3.47;;;22.70;91.40;;;;;;4748170;30;20335;-79
2021/08/10 06:07:15;;;;;;;9.73;3.92;;;22.80;91.50;;;;;;4734290;30;20039;-79
2021/08/10 06:09:43;;;;;;;5.35;3.03;;;22.90;91.40;;;;;;4718954;30;20355;-79
2021/08/10 06:12:11;;;;;;;6.45;3.55;;;22.90;91.30;;;;;;4745264;30;20036;-79
2021/08/10 06:14:37;;;;;;;10.82;3.85;;;23.10;91.20;;;;;;4725107;30;20029;-82
2021/08/10 06:17:04;;;;;;;11.70;3.97;;;23.30;91.30;;;;;;4729944;30;20044;-80
2021/08/10 06:19:30;;;;;;;9.65;5.47;;;23.50;91.10;;;;;;4750953;30;20043;-80
2021/08/10 06:21:56;;;;;;;9.60;4.23;;;23.80;91.40;;;;;;4743467;30;20269;-80
2021/08/10 06:24:28;;;;;;;18.20;5.22;;;24.00;90.80;;;;;;4729639;30;20033;-80
2021/08/10 06:26:54;;;;;;;10.98;4.78;;;24.10;90.50;;;;;;4708493;30;20043;-80
2021/08/10 06:29:21;;;;;;;6.68;4.40;;;24.30;90.70;;;;;;4724493;30;20099;-81
2021/08/10 06:31:47;;;;;;;8.48;4.20;;;24.50;90.00;;;;;;4741858;30;20029;-81
2021/08/10 06:34:12;;;;;;;7.15;4.30;;;24.70;89.20;;;;;;4728283;30;20024;-81
2021/08/10 06:36:39;;;;;;;13.18;4.82;;;24.90;88.00;;;;;;4733160;30;20032;-81
2021/08/10 06:39:10;;;;;;;9.40;4.07;;;25.10;87.00;;;;;;4728129;30;20035;-81
2021/08/10 06:41:43;;;;;;;7.93;4.25;;;25.20;86.40;;;;;;4738746;30;20024;-81
2021/08/10 06:44:11;;;;;;;7.75;4.38;;;25.40;86.10;;;;;;4761629;30;20041;-81
2021/08/10 06:46:48;;;;;;;7.15;4.25;;;25.60;85.80;;;;;;4732467;30;20051;-81
2021/08/10 06:49:17;;;;;;;10.82;4.03;;;25.90;85.70;;;;;;4732905;30;20059;-81
2021/08/10 06:51:43;;;;;;;14.23;4.45;;;26.00;83.90;;;;;;4732439;30;20028;-81
2021/08/10 06:54:12;;;;;;;10.23;4.63;;;26.10;84.00;;;;;;4728938;30;20028;-81
2021/08/10 06:56:48;;;;;;;9.32;4.93;;;26.10;83.60;;;;;;4730276;30;20032;-84
2021/08/10 06:59:17;;;;;;;9.50;3.70;;;26.20;82.80;;;;;;4743284;30;20223;-82
2021/08/10 07:01:46;;;;;;;14.18;4.05;;;26.30;78.60;;;;;;4764567;30;20020;-83
2021/08/10 07:04:15;;;;;;;16.38;5.05;;;26.30;81.30;;;;;;4743970;30;20104;-83
2021/08/10 07:06:41;;;;;;;15.55;6.25;;;26.20;79.20;;;;;;4737352;30;20304;-83
2021/08/10 07:09:16;;;;;;;10.38;4.68;;;26.30;80.50;;;;;;4731058;30;20059;-83
2021/08/10 07:11:49;;;;;;;11.73;4.07;;;26.30;80.40;;;;;;4732342;30;20044;-82
2021/08/10 07:14:15;;;;;;;7.70;3.50;;;26.40;77.80;;;;;;4744182;30;20350;-83
2021/08/10 07:16:44;;;;;;;9.55;3.95;;;26.40;78.70;;;;;;4746462;30;20087;-83
2021/08/10 07:19:13;;;;;;;11.32;3.88;;;26.50;79.90;;;;;;4717495;30;20112;-83
2021/08/10 07:21:41;;;;;;;13.48;4.75;;;26.80;78.10;;;;;;4730237;30;20074;-83
2021/08/10 07:24:13;;;;;;;10.48;3.60;;;27.10;77.00;;;;;;4722991;30;20036;-83
2021/08/10 07:26:42;;;;;;;12.07;4.13;;;27.30;76.90;;;;;;4732118;30;20025;-82
2021/08/10 07:29:12;;;;;;;7.10;4.00;;;27.30;75.90;;;;;;4710814;30;20033;-82
2021/08/10 07:31:40;;;;;;;5.50;3.00;;;27.30;72.40;;;;;;4700506;30;20084;-83
2021/08/10 07:34:11;;;;;;;7.75;4.10;;;27.10;74.00;;;;;;4683340;30;20044;-82
2021/08/10 07:36:41;;;;;;;5.53;3.53;;;27.20;73.60;;;;;;4701569;30;20033;-82
2021/08/10 07:39:07;;;;;;;10.32;3.40;;;27.10;75.40;;;;;;4722194;30;20087;-82
2021/08/10 07:41:33;;;;;;;8.85;4.07;;;27.10;73.70;;;;;;4696316;30;20042;-82
2021/08/10 07:44:06;;;;;;;7.47;3.33;;;27.00;71.30;;;;;;4710437;30;21313;-82
2021/08/10 07:46:36;;;;;;;13.27;4.00;;;26.90;72.60;;;;;;4695165;30;20042;-82
2021/08/10 07:49:02;;;;;;;15.73;3.72;;;26.90;73.10;;;;;;4716504;30;20037;-82
2021/08/10 07:51:28;;;;;;;10.30;3.70;;;27.10;74.10;;;;;;4708046;30;20128;-82
2021/08/10 07:53:55;;;;;;;6.63;4.38;;;27.20;74.60;;;;;;4688142;30;20030;-82
2021/08/10 07:56:21;;;;;;;8.30;3.90;;;27.30;75.40;;;;;;4681450;30;20041;-82
2021/08/10 07:58:47;;;;;;;6.47;3.20;;;27.50;72.70;;;;;;4709794;30;20034;-82
2021/08/10 08:01:13;;;;;;;7.88;3.60;;;27.50;72.50;;;;;;4715480;30;20397;-82
2021/08/10 08:03:39;;;;;;;8.97;3.40;;;27.40;71.50;;;;;;4726835;30;20247;-82
2021/08/10 08:06:05;;;;;;;6.43;3.72;;;27.40;71.90;;;;;;4715064;30;20494;-82
2021/08/10 08:08:31;;;;;;;12.75;3.10;;;27.50;74.20;;;;;;4732915;30;20103;-81
2021/08/10 08:10:58;;;;;;;12.27;3.37;;;27.60;74.00;;;;;;4716134;30;20033;-82
2021/08/10 08:13:29;;;;;;;9.93;3.42;;;27.70;73.40;;;;;;4699796;30;20346;-82
2021/08/10 08:15:57;;;;;;;6.32;3.53;;;27.80;73.70;;;;;;4714435;30;20040;-81
2021/08/10 08:18:23;;;;;;;4.47;2.88;;;27.80;73.30;;;;;;4739711;30;20055;-81
2021/08/10 08:20:50;;;;;;;7.93;4.05;;;27.90;72.00;;;;;;4751271;30;20036;-81
2021/08/10 08:23:25;;;;;;;4.75;3.40;;;27.90;72.30;;;;;;4730326;30;20288;-81
2021/08/10 08:25:54;;;;;;;9.23;2.97;;;28.00;71.00;;;;;;4730920;30;20232;-81
2021/08/10 08:28:20;;;;;;;13.57;4.03;;;28.10;73.00;;;;;;4712315;30;20086;-81
2021/08/10 08:30:46;;;;;;;9.35;3.85;;;28.20;71.20;;;;;;4716107;30;20024;-81
2021/08/10 08:33:14;;;;;;;9.65;3.15;;;28.20;70.60;;;;;;4730176;30;20028;-81
2021/08/10 08:35:40;;;;;;;9.40;3.73;;;28.20;72.00;;;;;;4715861;30;20107;-81
2021/08/10 08:38:08;;;;;;;8.63;3.63;;;28.40;72.00;;;;;;4730454;30;20081;-81
2021/08/10 08:40:41;;;;;;;5.65;3.80;;;28.40;70.00;;;;;;4716014;30;20037;-81
2021/08/10 08:43:08;;;;;;;8.38;3.70;;;28.60;68.40;;;;;;4716301;30;20304;-81
2021/08/10 08:45:35;;;;;;;10.80;4.18;;;28.50;72.80;;;;;;4729907;30;20336;-81
2021/08/10 08:48:04;;;;;;;8.80;3.47;;;28.60;69.00;;;;;;4735546;30;20114;-80
2021/08/10 08:50:32;;;;;;;10.15;4.30;;;28.70;69.30;;;;;;4747100;30;20032;-80
2021/08/10 08:53:00;;;;;;;7.90;3.55;;;28.80;66.20;;;;;;4712687;30;20029;-81
2021/08/10 08:55:27;;;;;;;6.50;2.72;;;28.60;65.00;;;;;;4749724;30;20099;-81
2021/08/10 08:57:53;;;;;;;5.18;2.95;;;28.50;68.00;;;;;;4711074;30;20040;-81
2021/08/10 09:00:19;;;;;;;10.27;2.83;;;28.70;67.30;;;;;;4734493;30;20128;-81
2021/08/10 09:02:47;;;;;;;6.53;2.90;;;28.80;65.90;;;;;;4728766;30;20031;-81
2021/08/10 09:05:20;;;;;;;5.43;2.35;;;29.00;65.10;;;;;;4737103;30;20039;-81
2021/08/10 09:07:46;;;;;;;6.25;2.78;;;29.10;62.70;;;;;;4727800;30;20041;-81
2021/08/10 09:10:15;;;;;;;6.18;2.83;;;29.10;61.10;;;;;;4700618;30;20041;-81
2021/08/10 09:12:48;;;;;;;7.63;3.28;;;29.00;64.10;;;;;;4705171;30;20272;-81
2021/08/10 09:15:31;;;;;;;13.02;3.50;;;29.20;62.00;;;;;;4691565;30;20030;-80
2021/08/10 09:18:11;;;;;;;5.28;2.17;;;29.40;62.10;;;;;;4695792;30;20085;-81
2021/08/10 09:20:41;;;;;;;8.80;2.78;;;29.50;62.50;;;;;;4700392;30;20729;-81
2021/08/10 09:23:08;;;;;;;6.65;3.05;;;29.50;60.90;;;;;;4694317;30;20037;-81
2021/08/10 09:25:41;;;;;;;8.55;2.95;;;29.60;63.70;;;;;;4708174;30;20096;-81
2021/08/10 09:28:10;;;;;;;5.40;3.50;;;29.60;61.60;;;;;;4721855;30;20045;-80
2021/08/10 09:30:43;;;;;;;10.27;3.42;;;29.60;62.30;;;;;;4711643;30;20040;-81
2021/08/10 09:33:09;;;;;;;8.37;3.53;;;29.70;63.00;;;;;;4706024;30;20036;-81
2021/08/10 09:35:45;;;;;;;8.63;3.30;;;29.70;63.50;;;;;;4700071;30;20032;-81
2021/08/10 09:38:18;;;;;;;4.72;2.90;;;30.00;62.90;;;;;;4726191;30;20274;-80
2021/08/10 09:40:52;;;;;;;9.20;3.38;;;30.20;61.50;;;;;;4729215;30;20044;-80
2021/08/10 09:43:21;;;;;;;5.03;2.65;;;30.40;57.20;;;;;;4714697;30;20028;-80
2021/08/10 09:45:49;;;;;;;7.40;3.17;;;30.30;59.60;;;;;;4747590;30;20545;-81
2021/08/10 09:48:18;;;;;;;4.55;2.65;;;30.40;58.00;;;;;;4747979;30;20041;-81
2021/08/10 09:50:45;;;;;;;5.13;2.53;;;30.50;57.20;;;;;;4728511;30;20111;-80
2021/08/10 09:53:17;;;;;;;4.53;3.05;;;30.50;55.60;;;;;;4751413;30;20024;-80
2021/08/10 09:56:02;;;;;;;6.45;2.47;;;30.50;57.00;;;;;;4725007;30;20028;-80
2021/08/10 09:58:28;;;;;;;8.80;2.55;;;30.50;58.30;;;;;;4725731;30;20040;-80
2021/08/10 10:00:59;;;;;;;5.27;3.00;;;30.70;55.00;;;;;;4716568;30;20201;-80
2021/08/10 10:03:28;;;;;;;5.65;2.63;;;30.60;55.60;;;;;;4719136;30;20036;-80
2021/08/10 10:06:05;;;;;;;5.40;2.72;;;30.50;58.10;;;;;;4743426;30;20323;-80
2021/08/10 10:08:33;;;;;;;12.18;2.58;;;30.60;56.40;;;;;;4764558;30;20107;-79
2021/08/10 10:11:00;;;;;;;5.68;2.88;;;30.70;56.40;;;;;;4721926;30;20029;-80
2021/08/10 10:13:34;;;;;;;5.15;2.85;;;30.80;56.00;;;;;;4745420;30;20085;-81
2021/08/10 10:16:00;;;;;;;5.43;2.95;;;30.80;54.80;;;;;;4749187;30;20034;-80
2021/08/10 10:18:27;;;;;;;6.73;2.63;;;30.80;53.50;;;;;;4750604;30;20319;-80
2021/08/10 10:20:54;;;;;;;6.45;2.30;;;30.80;54.30;;;;;;4756465;30;20037;-81
2021/08/10 10:23:27;;;;;;;4.80;2.53;;;30.80;54.90;;;;;;4724202;30;20032;-80
2021/08/10 10:25:55;;;;;;;6.47;2.65;;;30.80;56.20;;;;;;4752606;30;20290;-80
2021/08/10 10:28:22;;;;;;;4.72;2.40;;;30.90;55.70;;;;;;4749740;30;20357;-80
2021/08/10 10:30:49;;;;;;;10.38;2.83;;;30.90;55.80;;;;;;4738844;30;20031;-80
2021/08/10 10:33:16;;;;;;;5.38;2.53;;;30.90;54.70;;;;;;4757935;30;20335;-80
2021/08/10 10:35:44;;;;;;;3.17;2.55;;;31.00;55.80;;;;;;4749264;30;20035;-79
2021/08/10 10:38:11;;;;;;;6.78;3.17;;;31.20;55.40;;;;;;4735879;30;20118;-80
2021/08/10 10:40:37;;;;;;;6.10;3.72;;;31.30;55.40;;;;;;4735006;30;20036;-80
2021/08/10 10:43:04;;;;;;;5.07;2.85;;;31.30;54.30;;;;;;4744327;30;20059;-80
2021/08/10 10:45:38;;;;;;;3.95;2.47;;;31.40;55.00;;;;;;4757004;30;20040;-80
2021/08/10 10:48:27;;;;;;;5.28;2.65;;;31.50;54.90;;;;;;4736536;30;20102;-80
2021/08/10 10:51:13;;;;;;;3.80;2.53;;;31.50;55.60;;;;;;4685814;30;20241;-80
2021/08/10 10:53:46;;;;;;;4.53;2.20;;;31.60;52.70;;;;;;4687858;30;20049;-80
2021/08/10 10:56:33;;;;;;;4.97;2.55;;;31.50;53.60;;;;;;4682001;30;20070;-79
2021/08/10 10:59:21;;;;;;;7.78;2.95;;;31.40;53.00;;;;;;4669031;30;20030;-79
2021/08/10 11:01:47;;;;;;;4.68;2.90;;;31.40;51.90;;;;;;4670803;30;20181;-79
2021/08/10 11:04:14;;;;;;;4.72;2.60;;;31.30;52.90;;;;;;4689562;30;20041;-79
2021/08/10 11:06:45;;;;;;;7.07;3.15;;;31.40;55.20;;;;;;4682045;30;20046;-79
2021/08/10 11:09:36;;;;;;;5.07;2.22;;;31.50;53.90;;;;;;4679276;30;20384;-80
2021/08/10 11:12:21;;;;;;;5.68;2.53;;;31.60;54.00;;;;;;4686722;30;20035;-79
2021/08/10 11:14:49;;;;;;;3.35;2.40;;;31.60;53.90;;;;;;4662267;30;20076;-80
2021/08/10 11:17:15;;;;;;;3.70;2.40;;;31.60;52.50;;;;;;4687570;30;20034;-80
2021/08/10 11:19:46;;;;;;;9.27;2.90;;;31.70;53.40;;;;;;4688848;30;20076;-80
2021/08/10 11:22:15;;;;;;;4.10;2.60;;;31.60;54.20;;;;;;4675056;30;20034;-80
2021/08/10 11:24:53;;;;;;;4.15;2.78;;;31.80;54.10;;;;;;4665001;30;20043;-80
2021/08/10 11:27:44;;;;;;;6.47;2.55;;;31.80;53.80;;;;;;4695293;30;20399;-80
2021/08/10 11:30:20;;;;;;;3.65;2.85;;;32.00;55.10;;;;;;4759471;30;20043;-80
2021/08/10 11:32:48;;;;;;;5.18;2.53;;;32.00;53.80;;;;;;4743936;30;20028;-80
2021/08/10 11:35:24;;;;;;;5.50;2.67;;;31.90;53.30;;;;;;4740217;30;20132;-80
2021/08/10 11:38:05;;;;;;;6.50;2.50;;;31.90;55.00;;;;;;4727090;30;20059;-79
2021/08/10 11:40:52;;;;;;;6.28;2.67;;;32.10;56.60;;;;;;4748939;30;20097;-80
2021/08/10 11:43:43;;;;;;;6.65;2.50;;;32.10;53.00;;;;;;4737945;30;20335;-79
2021/08/10 11:46:18;;;;;;;5.25;2.90;;;32.10;52.90;;;;;;4739545;30;20067;-79
2021/08/10 11:48:48;;;;;;;3.85;2.50;;;32.10;51.50;;;;;;4727998;30;20093;-79
2021/08/10 11:51:25;;;;;;;4.43;2.45;;;32.20;53.50;;;;;;4727275;30;20078;-79
2021/08/10 11:54:14;;;;;;;4.05;2.65;;;32.30;51.10;;;;;;4753856;30;20028;-79
2021/08/10 11:56:45;;;;;;;4.35;2.53;;;32.30;51.90;;;;;;4719194;30;20382;-79
2021/08/10 11:59:19;;;;;;;6.07;2.92;;;32.30;50.80;;;;;;4746872;30;20036;-80
2021/08/10 12:01:46;;;;;;;3.72;2.70;;;32.30;52.70;;;;;;4731230;30;20099;-79
2021/08/10 12:04:18;;;;;;;4.38;2.70;;;32.30;52.50;;;;;;4721641;30;20033;-79
2021/08/10 12:06:47;;;;;;;4.10;2.72;;;32.30;52.60;;;;;;4747616;30;20028;-79
2021/08/10 12:09:15;;;;;;;5.70;2.75;;;32.40;53.60;;;;;;4737500;30;20044;-79
2021/08/10 12:11:44;;;;;;;4.97;2.60;;;32.50;53.20;;;;;;4713670;30;20057;-79
2021/08/10 12:14:10;;;;;;;5.50;2.70;;;32.50;52.20;;;;;;4756014;30;20047;-79
2021/08/10 12:16:36;;;;;;;;;;;32.60;51.60;;;;;;4723602;30;20471;-79
2021/08/10 12:19:02;;;;;;;3.75;2.85;;;32.70;52.10;;;;;;4717749;30;19914;-79
2021/08/10 12:21:43;;;;;;;5.30;3.10;;;32.70;51.70;;;;;;4734456;30;20038;-79
2021/08/10 12:24:25;;;;;;;4.88;2.22;;;32.80;51.50;;;;;;4735437;30;20045;-80
2021/08/10 12:26:51;;;;;;;8.18;2.78;;;32.80;50.60;;;;;;4754264;30;20038;-80
2021/08/10 12:29:17;;;;;;;7.45;2.83;;;32.60;53.00;;;;;;4730342;30;20028;-80
2021/08/10 12:31:47;;;;;;;3.87;2.90;;;32.60;52.30;;;;;;4745566;30;20209;-80
2021/08/10 12:34:13;;;;;;;4.82;2.95;;;32.60;50.70;;;;;;4746414;30;20056;-79
2021/08/10 12:36:49;;;;;;;5.33;2.80;;;32.70;50.50;;;;;;4734348;30;20090;-80
2021/08/10 12:39:15;;;;;;;7.40;2.95;;;32.80;53.90;;;;;;4734743;30;20025;-80
2021/08/10 12:41:41;;;;;;;7.80;3.10;;;32.70;51.30;;;;;;4715495;30;20031;-79
2021/08/10 12:44:09;;;;;;;5.20;2.70;;;32.70;51.20;;;;;;4730725;30;20230;-79
2021/08/10 12:46:37;;;;;;;7.38;3.50;;;32.70;52.50;;;;;;4736643;30;20068;-79
2021/08/10 12:49:15;;;;;;;5.55;2.80;;;32.90;52.80;;;;;;4730618;30;20040;-79
2021/08/10 12:51:51;;;;;;;8.23;2.75;;;33.00;49.60;;;;;;4763874;30;20036;-79
2021/08/10 12:54:17;;;;;;;4.20;2.85;;;33.00;49.90;;;;;;4752754;30;20028;-79
2021/08/10 12:56:43;;;;;;;9.35;2.55;;;33.00;49.40;;;;;;4736996;30;20039;-79
2021/08/10 12:59:09;;;;;;;6.50;3.20;;;33.10;49.80;;;;;;4745415;30;20056;-79
2021/08/10 13:01:42;;;;;;;5.93;2.67;;;33.00;48.60;;;;;;4736344;30;20083;-79
2021/08/10 13:04:09;;;;;;;3.33;2.55;;;33.10;48.90;;;;;;4747422;30;20047;-79
2021/08/10 13:06:36;;;;;;;8.52;3.00;;;33.00;48.60;;;;;;4730989;30;20049;-79
2021/08/10 13:09:03;;;;;;;8.57;2.70;;;33.00;49.40;;;;;;4751584;30;20048;-79
2021/08/10 13:11:28;;;;;;;6.05;2.50;;;33.00;48.80;;;;;;4731294;30;20037;-79
2021/08/10 13:14:10;;;;;;;4.83;2.80;;;32.90;49.40;;;;;;4764701;30;20024;-79
2021/08/10 13:16:42;;;;;;;12.05;2.83;;;33.10;51.10;;;;;;4737306;30;20083;-81
2021/08/10 13:19:13;;;;;;;8.60;3.10;;;33.20;48.30;;;;;;4753987;30;20040;-80
2021/08/10 13:21:53;;;;;;;7.47;2.90;;;33.10;49.00;;;;;;4716454;30;20037;-80
2021/08/10 13:24:21;;;;;;;5.93;2.78;;;33.10;49.50;;;;;;4731273;30;20337;-80
2021/08/10 13:26:48;;;;;;;3.17;2.42;;;33.10;49.10;;;;;;4751266;30;20098;-80
2021/08/10 13:29:15;;;;;;;8.63;3.08;;;33.20;49.70;;;;;;4729169;30;20036;-80
2021/08/10 13:31:48;;;;;;;5.68;3.03;;;33.20;50.90;;;;;;4732981;30;20690;-80
2021/08/10 13:34:14;;;;;;;8.52;3.00;;;33.20;49.30;;;;;;4754649;30;20033;-80
2021/08/10 13:36:39;;;;;;;6.07;2.70;;;33.20;49.70;;;;;;4709602;30;20077;-80
2021/08/10 13:39:06;;;;;;;8.53;3.07;;;33.20;49.70;;;;;;4746327;30;20045;-79
2021/08/10 13:41:37;;;;;;;8.63;3.17;;;33.30;49.00;;;;;;4740649;30;20032;-80
2021/08/10 13:44:03;;;;;;;6.05;2.72;;;33.40;50.30;;;;;;4730401;30;20032;-80
2021/08/10 13:46:30;;;;;;;8.32;3.45;;;33.50;48.50;;;;;;4751307;30;20061;-80
2021/08/10 13:48:56;;;;;;;9.60;3.15;;;33.60;49.10;;;;;;4756474;30;20408;-80
2021/08/10 13:51:22;;;;;;;3.95;2.30;;;33.50;49.40;;;;;;4739000;30;20025;-80
2021/08/10 13:53:48;;;;;;;9.73;2.90;;;33.50;50.60;;;;;;4735342;30;20037;-80
2021/08/10 13:56:14;;;;;;;6.18;2.50;;;33.50;48.10;;;;;;4733039;30;20027;-79
2021/08/10 13:58:40;;;;;;;6.93;3.03;;;33.50;48.30;;;;;;4738346;30;20041;-79
2021/08/10 14:01:12;;;;;;;7.53;2.87;;;33.50;47.60;;;;;;4731287;30;20334;-79
2021/08/10 14:03:40;;;;;;;8.70;3.42;;;33.40;47.90;;;;;;4727943;30;20044;-79
2021/08/10 14:06:15;;;;;;;5.90;2.90;;;33.50;48.70;;;;;;4747786;30;20036;-79
2021/08/10 14:08:42;;;;;;;6.83;3.17;;;33.40;48.50;;;;;;4746337;30;20282;-79
2021/08/10 14:11:08;;;;;;;4.32;2.40;;;33.50;48.50;;;;;;4746620;30;20033;-79
2021/08/10 14:13:33;;;;;;;4.17;3.00;;;33.50;46.30;;;;;;4729327;30;20349;-80
2021/08/10 14:15:59;;;;;;;6.80;3.60;;;33.40;48.60;;;;;;4740924;30;20038;-80
2021/08/10 14:18:25;;;;;;;4.70;2.50;;;33.40;48.00;;;;;;4753850;30;20557;-79
2021/08/10 14:20:51;;;;;;;6.20;2.80;;;33.30;47.70;;;;;;4744126;30;20052;-81
2021/08/10 14:23:17;;;;;;;6.97;2.63;;;33.20;48.90;;;;;;4747673;30;20390;-82
2021/08/10 14:25:42;;;;;;;5.07;2.77;;;33.30;50.20;;;;;;4753532;30;20060;-81
2021/08/10 14:28:08;;;;;;;4.43;2.43;;;33.50;49.50;;;;;;4750308;30;20040;-78
2021/08/10 14:30:34;;;;;;;8.23;2.73;;;33.50;49.00;;;;;;4750165;30;20074;-78
2021/08/10 14:33:01;;;;;;;13.57;2.57;;;33.40;49.00;;;;;;4753645;30;20035;-78
2021/08/10 14:35:27;;;;;;;7.03;2.97;;;33.40;49.10;;;;;;4750313;30;20056;-78
2021/08/10 14:37:53;;;;;;;6.97;2.65;;;33.50;48.10;;;;;;4747104;30;20115;-78
2021/08/10 14:40:20;;;;;;;10.80;8.57;;;33.50;48.60;;;;;;4737307;30;20028;-78
2021/08/10 14:42:46;;;;;;;13.70;12.40;;;33.60;47.30;;;;;;4764924;30;20597;-78
2021/08/10 14:45:12;;;;;;;;;;;33.60;46.60;;;;;;4756147;30;20024;-78
2021/08/10 14:47:38;;;;;;;16.42;11.68;;;33.40;46.00;;;;;;4754184;30;20267;-78
2021/08/10 14:50:05;;;;;;;61.13;54.77;;;33.40;47.10;;;;;;4732358;30;20100;-79
2021/08/10 14:52:32;;;;;;;47.95;42.97;;;33.40;46.80;;;;;;4739455;30;20033;-79
2021/08/10 14:54:58;;;;;;;23.63;21.23;;;33.40;47.10;;;;;;4746040;30;20031;-79
2021/08/10 14:57:23;;;;;;;117.83;106.33;;;33.50;48.10;;;;;;4757117;30;20036;-78
2021/08/10 14:59:49;;;;;;;13.33;7.97;;;33.50;47.00;;;;;;4731429;30;20028;-78
2021/08/10 15:02:15;;;;;;;5.17;3.27;;;33.40;47.50;;;;;;4755999;30;20048;-78
2021/08/10 15:04:41;;;;;;;12.77;3.43;;;33.10;47.70;;;;;;4749778;30;20028;-78
2021/08/10 15:07:06;;;;;;;9.97;3.17;;;32.70;47.00;;;;;;4740582;30;20040;-78
2021/08/10 15:09:32;;;;;;;8.27;2.60;;;32.50;48.30;;;;;;4733749;30;20055;-78
2021/08/10 15:11:58;;;;;;;6.00;2.97;;;32.40;48.30;;;;;;4752813;30;20029;-78
2021/08/10 15:14:24;;;;;;;7.40;3.37;;;32.50;48.60;;;;;;4739187;30;20089;-78
2021/08/10 15:16:50;;;;;;;5.10;3.47;;;32.50;49.50;;;;;;4742738;30;20033;-79
2021/08/10 15:19:15;;;;;;;16.03;3.13;;;32.60;49.30;;;;;;4744750;30;20032;-78
2021/08/10 15:21:41;;;;;;;3.77;2.90;;;32.60;47.90;;;;;;4751810;30;20298;-78
2021/08/10 15:24:07;;;;;;;8.00;2.57;;;32.60;46.90;;;;;;4738517;30;20083;-78
2021/08/10 15:26:33;;;;;;;8.37;6.93;;;32.60;47.20;;;;;;4737241;30;20329;-79
2021/08/10 15:28:59;;;;;;;13.07;11.75;;;32.70;47.20;;;;;;4731386;30;20037;-79
2021/08/10 15:31:25;;;;;;;11.00;5.20;;;32.90;46.90;;;;;;4732845;30;20084;-78
2021/08/10 15:33:51;;;;;;;14.33;10.40;;;32.80;46.60;;;;;;4740072;30;20320;-78
2021/08/10 15:36:20;;;;;;;5.75;3.15;;;32.90;46.10;;;;;;4743618;30;20135;-78
2021/08/10 15:38:46;;;;;;;13.57;10.98;;;32.90;47.00;;;;;;4747370;30;20042;-79